Time;durP1;ratioP1;P1;durP2;ratioP2;P2;SDS_P1;SDS_P2;PMS_P1;PMS_P2;Temp;Humidity;BMP_temperature;BMP_pressure;BME280_temperature;BME280_humidity;BME280_pressure;Samples;Min_cycle;Max_cycle;Signal;HPM_P1;HPM_P2
2022/08/21 00:00:27;;;;;;;9.52;3.88;;;;;;;19.33;78.83;92880.28;5028610;28;20112;-68
2022/08/21 00:02:56;;;;;;;12.15;3.67;;;;;;;19.14;80.19;92884.22;5037795;27;20118;-65
2022/08/21 00:05:23;;;;;;;5.80;3.78;;;;;;;19.06;81.01;92886.56;5132604;27;20080;-65
2022/08/21 00:07:48;;;;;;;7.57;4.00;;;;;;;18.91;81.59;92885.06;5132825;27;20033;-65
2022/08/21 00:10:14;;;;;;;8.10;4.47;;;;;;;18.84;81.32;92882.56;5132750;27;20027;-66
2022/08/21 00:12:40;;;;;;;6.80;4.38;;;;;;;18.77;82.59;92891.97;5132751;27;20023;-65
2022/08/21 00:15:11;;;;;;;7.47;4.13;;;;;;;18.72;82.58;92899.41;5131509;27;20235;-65
2022/08/21 00:17:36;;;;;;;5.97;4.50;;;;;;;18.84;82.47;92893.75;5131142;27;20023;-64
2022/08/21 00:20:05;;;;;;;9.23;5.00;;;;;;;18.78;82.46;92910.19;5132328;27;20027;-66
2022/08/21 00:22:31;;;;;;;;;;;;;;;18.79;81.55;92908.88;5083851;27;20029;-67
2022/08/21 00:24:56;;;;;;;10.63;4.07;;;;;;;18.81;81.37;92904.09;5028129;28;20317;-66
2022/08/21 00:27:22;;;;;;;9.52;4.57;;;;;;;18.86;81.57;92902.97;5028057;28;20069;-66
2022/08/21 00:29:47;;;;;;;9.93;4.20;;;;;;;18.90;81.21;92903.22;5027772;28;20032;-66
2022/08/21 00:32:12;;;;;;;9.30;4.57;;;;;;;18.94;80.72;92902.69;5096646;27;20030;-66
2022/08/21 00:34:38;;;;;;;7.43;4.28;;;;;;;18.99;80.23;92909.25;5130432;27;20035;-65
2022/08/21 00:37:04;;;;;;;6.22;3.80;;;;;;;19.03;79.61;92910.19;5132271;27;20023;-66
2022/08/21 00:39:29;;;;;;;9.15;4.38;;;;;;;19.00;79.61;92924.66;5132141;27;20080;-65
2022/08/21 00:41:55;;;;;;;9.45;5.20;;;;;;;18.74;81.44;92913.50;5132133;27;20045;-65
2022/08/21 00:44:20;;;;;;;6.07;5.15;;;;;;;18.77;81.24;92906.69;5132007;27;20058;-65
2022/08/21 00:46:46;;;;;;;6.05;4.82;;;;;;;18.64;81.42;92898.97;5131710;27;20060;-65
2022/08/21 00:49:13;;;;;;;10.18;5.00;;;;;;;18.59;82.33;92916.84;5131775;27;20034;-65
2022/08/21 00:51:50;;;;;;;5.70;4.82;;;;;;;18.70;81.27;92920.94;5131943;27;20511;-66
2022/08/21 00:54:17;;;;;;;9.38;5.47;;;;;;;18.68;81.02;92932.00;5131678;27;20027;-65
2022/08/21 00:56:42;;;;;;;10.25;5.03;;;;;;;18.74;81.19;92937.94;5130817;27;20035;-65
2022/08/21 00:59:08;;;;;;;9.73;4.75;;;;;;;18.83;80.39;92928.66;5130600;27;20029;-65
2022/08/21 01:01:34;;;;;;;9.43;4.78;;;;;;;18.87;79.96;92937.28;5130649;27;20395;-65
2022/08/21 01:04:00;;;;;;;5.90;4.28;;;;;;;18.81;79.92;92925.75;5074087;27;20043;-64
2022/08/21 01:06:25;;;;;;;4.95;4.20;;;;;;;18.75;80.54;92936.59;5027576;28;20029;-65
2022/08/21 01:08:51;;;;;;;6.88;5.13;;;;;;;18.73;80.60;92937.22;5027960;28;20041;-65
2022/08/21 01:11:17;;;;;;;6.20;4.72;;;;;;;18.79;79.69;92939.63;5027773;28;20482;-66
2022/08/21 01:13:45;;;;;;;9.50;7.13;;;;;;;18.80;79.51;92939.00;5027834;28;20482;-66
2022/08/21 01:16:12;;;;;;;6.75;4.40;;;;;;;18.81;79.63;92928.56;5027774;28;20030;-65
2022/08/21 01:18:37;;;;;;;7.85;4.57;;;;;;;18.69;80.25;92928.59;5026335;28;20430;-65
2022/08/21 01:21:13;;;;;;;7.80;4.70;;;;;;;18.51;81.12;92924.78;5027749;28;20030;-65
2022/08/21 01:23:41;;;;;;;9.88;5.10;;;;;;;18.59;81.02;92921.72;5026646;28;20071;-65
2022/08/21 01:26:07;;;;;;;6.10;5.10;;;;;;;18.59;81.31;92921.72;5027636;28;20049;-65
2022/08/21 01:28:36;;;;;;;6.53;4.72;;;;;;;18.67;81.47;92931.28;5027559;28;20071;-65
2022/08/21 01:31:03;;;;;;;11.02;5.15;;;;;;;18.65;80.22;92930.44;5026091;28;20508;-65
2022/08/21 01:33:28;;;;;;;7.25;4.75;;;;;;;18.62;79.61;92914.91;5026021;28;20042;-64
2022/08/21 01:35:54;;;;;;;7.60;5.18;;;;;;;18.67;79.55;92925.69;5027575;28;20025;-64
2022/08/21 01:38:20;;;;;;;8.68;4.00;;;;;;;18.58;79.39;92915.38;5027475;28;20490;-65
2022/08/21 01:40:45;;;;;;;10.07;4.15;;;;;;;18.48;79.89;92900.13;5029881;28;20021;-64
2022/08/21 01:43:11;;;;;;;9.73;4.15;;;;;;;18.53;79.35;92901.81;5030688;28;20026;-65
2022/08/21 01:45:37;;;;;;;6.47;3.50;;;;;;;18.48;79.98;92905.72;5030951;28;20025;-65
2022/08/21 01:48:03;;;;;;;8.15;3.88;;;;;;;18.52;80.91;92906.66;5030691;28;20565;-65
2022/08/21 01:50:28;;;;;;;10.43;4.13;;;;;;;18.57;80.40;92916.75;5030886;28;20029;-64
2022/08/21 01:52:54;;;;;;;7.15;3.50;;;;;;;18.53;79.69;92919.31;5030857;28;20410;-64
2022/08/21 01:55:20;;;;;;;7.35;4.00;;;;;;;18.45;79.07;92896.47;5030869;28;20471;-64
2022/08/21 01:57:46;;;;;;;15.00;5.00;;;;;;;18.62;79.57;92910.03;5030795;28;20410;-63
2022/08/21 02:00:15;;;;;;;7.63;3.60;;;;;;;18.62;78.79;92900.94;5030811;28;20021;-63
2022/08/21 02:02:40;;;;;;;6.90;4.72;;;;;;;18.51;79.88;92908.03;5029754;28;20025;-63
2022/08/21 02:05:07;;;;;;;6.68;4.55;;;;;;;18.38;81.31;92911.44;5134797;27;20092;-62
2022/08/21 02:07:41;;;;;;;7.07;4.60;;;;;;;18.08;81.28;92902.03;5133718;27;20481;-63
2022/08/21 02:10:08;;;;;;;8.05;5.65;;;;;;;18.06;81.38;92913.09;5135141;27;20048;-64
2022/08/21 02:12:34;;;;;;;11.10;5.80;;;;;;;18.09;81.37;92916.75;5135063;27;20046;-62
2022/08/21 02:15:00;;;;;;;8.32;5.50;;;;;;;18.03;81.26;92902.44;5087764;27;20540;-63
2022/08/21 02:17:25;;;;;;;9.88;5.22;;;;;;;18.11;81.58;92909.22;5029327;28;20033;-63
2022/08/21 02:19:51;;;;;;;6.90;4.75;;;;;;;18.16;81.09;92922.09;5030495;28;20029;-62
2022/08/21 02:22:16;;;;;;;10.52;4.90;;;;;;;18.08;81.11;92915.31;5029822;28;20517;-65
2022/08/21 02:24:42;;;;;;;9.57;5.57;;;;;;;18.07;81.24;92922.22;5030364;28;20025;-64
2022/08/21 02:27:08;;;;;;;6.80;4.57;;;;;;;18.12;81.10;92921.13;5030379;28;20139;-63
2022/08/21 02:29:33;;;;;;;7.65;5.28;;;;;;;18.23;80.27;92930.81;5029985;28;20490;-62
2022/08/21 02:31:58;;;;;;;10.98;4.57;;;;;;;18.17;80.14;92922.78;5088571;27;20027;-66
2022/08/21 02:34:24;;;;;;;6.35;4.25;;;;;;;18.03;80.89;92928.31;5134165;27;20050;-64
2022/08/21 02:36:50;;;;;;;8.80;4.38;;;;;;;18.08;80.21;92920.91;5134285;27;20043;-65
2022/08/21 02:39:15;;;;;;;4.70;3.22;;;;;;;18.08;79.82;92924.41;5134292;27;20034;-66
2022/08/21 02:41:40;;;;;;;6.53;3.15;;;;;;;18.07;80.50;92925.00;5134506;27;20103;-65
2022/08/21 02:44:06;;;;;;;7.00;4.07;;;;;;;17.97;81.06;92916.06;5134443;27;20019;-65
2022/08/21 02:46:31;;;;;;;11.40;4.70;;;;;;;17.97;81.74;92930.03;5134413;27;20423;-65
2022/08/21 02:48:57;;;;;;;8.35;4.47;;;;;;;18.07;81.85;92938.97;5134060;27;20415;-65
2022/08/21 02:51:23;;;;;;;9.32;4.00;;;;;;;18.19;80.90;92943.19;5133637;27;20035;-66
2022/08/21 02:53:49;;;;;;;7.00;3.80;;;;;;;18.25;80.40;92930.94;5134211;27;20018;-65
2022/08/21 02:56:17;;;;;;;5.93;3.95;;;;;;;18.28;80.56;92935.31;5134257;27;20027;-66
2022/08/21 02:58:51;;;;;;;7.25;4.15;;;;;;;18.29;79.95;92933.94;5134215;27;20027;-65
2022/08/21 03:01:17;;;;;;;11.27;4.93;;;;;;;18.17;80.95;92931.91;5133879;27;20117;-66
2022/08/21 03:03:44;;;;;;;8.32;4.72;;;;;;;18.27;81.68;92942.94;5088569;27;20033;-66
2022/08/21 03:06:13;;;;;;;9.48;3.58;;;;;;;18.28;81.22;92929.72;5029762;28;20070;-67
2022/08/21 03:08:38;;;;;;;6.57;4.05;;;;;;;18.29;80.61;92923.50;5029738;28;20110;-68
2022/08/21 03:11:04;;;;;;;8.45;3.70;;;;;;;18.27;80.21;92928.97;5029309;28;20091;-67
2022/08/21 03:13:30;;;;;;;5.80;3.88;;;;;;;18.23;80.10;92930.81;5029322;28;20052;-65
2022/08/21 03:15:56;;;;;;;9.52;4.10;;;;;;;18.05;80.71;92917.25;5029256;28;20030;-66
2022/08/21 03:18:22;;;;;;;11.55;5.22;;;;;;;18.19;80.19;92928.53;5029525;28;20029;-64
2022/08/21 03:20:48;;;;;;;9.25;4.55;;;;;;;18.17;80.19;92929.13;5029200;28;20026;-65
2022/08/21 03:23:15;;;;;;;6.10;4.38;;;;;;;18.15;80.29;92929.00;5028538;28;20041;-65
2022/08/21 03:25:41;;;;;;;7.28;4.65;;;;;;;18.06;81.20;92929.16;5029139;28;20494;-65
2022/08/21 03:28:12;;;;;;;6.28;4.28;;;;;;;18.07;81.04;92936.91;5029341;28;20034;-65
2022/08/21 03:30:38;;;;;;;5.63;4.60;;;;;;;18.04;80.98;92935.34;5028962;28;20022;-64
2022/08/21 03:33:04;;;;;;;8.50;4.90;;;;;;;17.97;81.49;92932.81;5029129;28;20132;-65
2022/08/21 03:35:29;;;;;;;7.75;4.25;;;;;;;17.93;81.21;92924.91;5028934;28;20025;-65
2022/08/21 03:37:55;;;;;;;7.03;4.57;;;;;;;18.04;79.99;92926.97;5028977;28;20108;-64
2022/08/21 03:40:22;;;;;;;9.32;4.63;;;;;;;17.96;80.96;92942.53;5029163;28;20058;-65
2022/08/21 03:42:47;;;;;;;6.93;3.55;;;;;;;17.91;81.22;92944.34;5029160;28;20025;-65
2022/08/21 03:45:14;;;;;;;5.35;4.13;;;;;;;17.90;81.24;92940.09;5028865;28;20029;-65
2022/08/21 03:48:00;;;;;;;6.00;4.70;;;;;;;17.96;80.75;92940.47;5029077;28;20116;-65
2022/08/21 03:50:28;;;;;;;8.55;4.70;;;;;;;17.94;80.91;92931.97;5029159;28;20413;-66
2022/08/21 03:52:54;;;;;;;14.53;5.10;;;;;;;17.87;80.51;92918.97;5028774;28;20108;-66
2022/08/21 03:55:19;;;;;;;8.20;5.45;;;;;;;17.95;80.93;92925.03;5028989;28;20488;-66
2022/08/21 03:57:45;;;;;;;7.47;4.50;;;;;;;17.97;81.27;92933.56;5029005;28;20413;-66
2022/08/21 04:00:13;;;;;;;7.95;4.97;;;;;;;18.00;81.33;92934.38;5029883;27;20045;-65
2022/08/21 04:02:39;;;;;;;14.95;5.03;;;;;;;18.01;81.43;92933.03;5027759;28;20029;-66
2022/08/21 04:05:06;;;;;;;10.23;6.18;;;;;;;18.05;81.61;92928.44;5008414;28;20030;-66
2022/08/21 04:07:32;;;;;;;11.15;6.20;;;;;;;18.07;82.58;92936.19;5018100;28;20482;-66
2022/08/21 04:09:57;;;;;;;7.72;5.15;;;;;;;18.08;81.71;92929.28;5028605;28;20066;-65
2022/08/21 04:12:23;;;;;;;9.90;6.00;;;;;;;18.00;81.81;92928.78;5028464;28;20044;-66
2022/08/21 04:14:51;;;;;;;9.68;5.45;;;;;;;17.94;82.00;92915.19;5028469;28;20032;-65
2022/08/21 04:17:17;;;;;;;8.98;4.63;;;;;;;18.07;81.68;92930.59;5028328;28;20041;-65
2022/08/21 04:19:42;;;;;;;10.63;5.95;;;;;;;18.08;81.81;92927.19;5028383;28;20108;-66
2022/08/21 04:22:08;;;;;;;13.68;5.55;;;;;;;18.13;81.61;92928.88;5027619;28;20474;-65
2022/08/21 04:37:24;;;;;;;10.02;5.68;;;;;;;18.93;77.28;92927.16;5128468;27;20697;-67
2022/08/21 04:39:49;;;;;;;17.88;10.38;;;;;;;18.89;78.04;92921.31;5128380;27;20128;-66
2022/08/21 04:42:15;;;;;;;13.32;9.77;;;;;;;18.82;78.46;92935.59;5128373;27;20031;-66
2022/08/21 04:44:41;;;;;;;13.55;8.95;;;;;;;18.72;78.51;92926.66;5128238;27;20031;-66
2022/08/21 04:47:06;;;;;;;11.73;9.02;;;;;;;18.63;79.25;92933.13;5128611;27;20028;-66
2022/08/21 04:49:32;;;;;;;11.07;8.02;;;;;;;18.49;80.29;92929.53;5128202;27;20028;-65
2022/08/21 04:51:58;;;;;;;10.38;8.15;;;;;;;18.27;81.04;92905.88;5128173;27;20038;-66
2022/08/21 04:54:24;;;;;;;14.88;8.93;;;;;;;18.40;81.06;92928.34;5128221;27;20031;-66
2022/08/21 04:56:52;;;;;;;14.90;9.18;;;;;;;18.45;80.78;92929.31;5128079;27;20019;-66
2022/08/21 04:59:24;;;;;;;13.27;8.38;;;;;;;18.47;81.22;92926.63;5124435;28;20030;-66
2022/08/21 05:01:50;;;;;;;16.42;6.82;;;;;;;18.57;80.58;92930.72;5107507;28;20047;-66
2022/08/21 05:04:18;;;;;;;11.05;6.60;;;;;;;18.47;80.64;92926.63;5119830;28;20484;-66
2022/08/21 05:06:46;;;;;;;11.68;7.38;;;;;;;18.39;81.03;92932.44;5128187;27;20030;-67
2022/08/21 05:09:14;;;;;;;13.98;6.40;;;;;;;18.28;82.24;92921.31;5128144;27;20110;-66
2022/08/21 05:11:41;;;;;;;12.40;7.85;;;;;;;18.35;81.66;92920.31;5126896;28;20019;-66
2022/08/21 05:14:07;;;;;;;13.73;7.93;;;;;;;18.56;80.45;92928.56;5126534;28;20023;-66
2022/08/21 05:16:33;;;;;;;14.88;9.15;;;;;;;18.51;80.74;92912.88;5128023;27;20479;-66
2022/08/21 05:18:58;;;;;;;11.48;8.55;;;;;;;18.49;81.20;92918.38;5127687;27;20023;-67
2022/08/21 05:21:24;;;;;;;14.32;9.90;;;;;;;18.49;81.36;92918.38;5127089;27;20049;-65
2022/08/21 05:23:49;;;;;;;13.95;10.07;;;;;;;18.52;81.27;92915.06;5127534;27;20015;-66
2022/08/21 05:26:15;;;;;;;14.80;10.52;;;;;;;18.59;81.58;92913.31;5127516;27;20019;-66
2022/08/21 05:28:41;;;;;;;17.10;9.30;;;;;;;18.57;81.80;92908.34;5127450;27;20019;-66
2022/08/21 05:31:06;;;;;;;12.20;9.82;;;;;;;18.68;80.93;92921.56;5127440;27;20480;-67
2022/08/21 05:33:32;;;;;;;14.32;9.13;;;;;;;18.73;80.14;92914.13;5123804;27;20023;-66
2022/08/21 05:35:57;;;;;;;11.75;8.60;;;;;;;18.65;79.82;92917.19;5106673;28;20078;-66
2022/08/21 05:38:28;;;;;;;11.52;8.73;;;;;;;18.78;79.99;92915.78;5093272;28;20028;-65
2022/08/21 05:40:53;;;;;;;15.85;8.25;;;;;;;18.80;79.59;92913.09;5093240;28;20035;-65
2022/08/21 05:43:19;;;;;;;19.85;8.32;;;;;;;18.84;79.41;92916.13;5093408;28;20054;-65
2022/08/21 05:45:45;;;;;;;17.20;8.20;;;;;;;18.68;80.26;92893.59;5093327;28;20401;-65
2022/08/21 05:48:21;;;;;;;11.90;8.55;;;;;;;18.78;80.26;92910.19;5092983;28;20028;-65
2022/08/21 05:50:49;;;;;;;16.50;9.13;;;;;;;18.76;81.13;92919.22;5093256;28;20024;-66
2022/08/21 05:53:15;;;;;;;22.85;15.73;;;;;;;18.81;81.28;92909.72;5093321;28;20103;-66
2022/08/21 05:55:42;;;;;;;23.63;15.02;;;;;;;18.85;81.30;92909.91;5093159;28;20081;-65
2022/08/21 05:58:07;;;;;;;26.48;16.63;;;;;;;18.82;81.57;92902.75;5093174;28;20023;-65
2022/08/21 06:00:33;;;;;;;30.85;18.33;;;;;;;18.83;81.75;92909.09;5092896;28;20081;-65
2022/08/21 06:02:59;;;;;;;18.77;13.20;;;;;;;18.89;80.76;92910.13;5092864;28;20467;-65
2022/08/21 06:05:25;;;;;;;24.05;14.30;;;;;;;18.91;81.65;92909.50;5092997;28;20112;-65
2022/08/21 06:07:51;;;;;;;19.23;13.30;;;;;;;18.96;81.93;92914.00;5092937;28;20107;-66
2022/08/21 06:10:17;;;;;;;26.95;14.80;;;;;;;19.02;81.76;92902.41;5092683;28;20024;-66
2022/08/21 06:12:42;;;;;;;14.57;10.23;;;;;;;19.14;81.27;92909.41;5092646;28;20028;-66
2022/08/21 06:15:08;;;;;;;13.35;10.18;;;;;;;19.26;80.19;92901.63;5092499;28;20111;-65
2022/08/21 06:17:34;;;;;;;14.82;9.30;;;;;;;19.31;79.82;92911.72;5092481;28;20028;-66
2022/08/21 06:19:59;;;;;;;15.68;10.27;;;;;;;19.47;79.07;92906.97;5092731;28;20023;-65
2022/08/21 06:22:25;;;;;;;11.98;8.55;;;;;;;19.56;78.69;92894.84;5092145;28;20024;-66
2022/08/21 06:36:49;;;;;;;14.15;7.00;;;;;;;20.89;72.50;92904.31;5128429;27;21003;-66
2022/08/21 06:39:14;;;;;;;11.30;6.97;;;;;;;20.91;72.56;92895.25;5128564;27;20110;-66
2022/08/21 06:41:40;;;;;;;19.80;7.03;;;;;;;20.91;72.61;92893.19;5128575;27;20019;-65
2022/08/21 06:44:06;;;;;;;10.80;5.90;;;;;;;20.91;73.23;92881.94;5128642;27;20507;-65
2022/08/21 06:46:31;;;;;;;12.18;6.10;;;;;;;20.95;73.74;92893.38;5128225;27;20024;-64
2022/08/21 06:48:58;;;;;;;9.70;5.38;;;;;;;20.86;72.76;92885.19;5127045;27;20054;-65
2022/08/21 06:51:25;;;;;;;9.98;5.68;;;;;;;20.95;72.88;92890.56;5128258;27;20026;-65
2022/08/21 06:53:51;;;;;;;12.45;6.43;;;;;;;21.01;72.68;92892.91;5128078;27;20031;-65
2022/08/21 06:56:17;;;;;;;10.07;6.28;;;;;;;21.05;72.03;92899.47;5128377;27;20023;-65
2022/08/21 06:58:42;;;;;;;10.82;6.90;;;;;;;21.16;72.64;92889.44;5125641;27;20041;-65
2022/08/21 07:01:08;;;;;;;10.50;5.95;;;;;;;20.97;72.62;92893.47;5126268;28;20719;-63
2022/08/21 07:03:36;;;;;;;7.55;5.25;;;;;;;21.02;73.47;92894.38;5127900;27;20020;-63
2022/08/21 07:06:03;;;;;;;11.02;4.45;;;;;;;20.86;73.58;92902.03;5128108;27;20060;-63
2022/08/21 07:08:29;;;;;;;12.00;7.55;;;;;;;20.79;73.90;92901.00;5128145;27;20058;-61
2022/08/21 07:10:57;;;;;;;12.48;5.07;;;;;;;20.79;73.25;92900.31;5127841;27;20100;-61
2022/08/21 07:13:23;;;;;;;10.77;4.00;;;;;;;20.89;73.02;92907.13;5128040;27;20445;-62
2022/08/21 07:15:48;;;;;;;12.32;4.38;;;;;;;21.18;71.07;92900.75;5127754;27;20024;-64
2022/08/21 07:18:14;;;;;;;7.90;4.00;;;;;;;21.43;69.87;92902.59;5127692;27;20075;-63
2022/08/21 07:20:40;;;;;;;9.27;4.10;;;;;;;21.64;70.31;92900.06;5127897;27;20019;-63
2022/08/21 07:23:09;;;;;;;13.85;7.32;;;;;;;21.91;70.61;92899.16;5112585;27;20519;-61
2022/08/21 07:25:34;;;;;;;;;;;;;;;22.17;70.19;92894.66;5106729;28;20069;-61
2022/08/21 07:28:00;;;;;;;11.43;7.25;;;;;;;22.25;69.88;92894.25;5107299;28;19915;-63
2022/08/21 07:30:26;;;;;;;12.77;7.72;;;;;;;22.32;68.17;92884.72;5107047;28;20477;-60
2022/08/21 07:32:52;;;;;;;7.38;5.03;;;;;;;22.64;66.74;92894.53;5110015;28;20114;-65
2022/08/21 07:35:19;;;;;;;10.57;5.50;;;;;;;22.98;66.82;92895.88;5127161;27;20519;-66
2022/08/21 07:37:45;;;;;;;9.73;4.57;;;;;;;23.27;64.23;92903.34;5113803;27;20420;-66
2022/08/21 07:40:11;;;;;;;11.02;5.20;;;;;;;23.37;65.39;92900.22;5113611;27;20015;-63
2022/08/21 07:42:44;;;;;;;9.70;4.43;;;;;;;23.46;63.35;92896.31;5113568;28;20076;-64
2022/08/21 07:45:10;;;;;;;8.20;4.38;;;;;;;23.39;64.02;92906.66;5113444;28;20023;-66
2022/08/21 07:47:36;;;;;;;10.23;5.30;;;;;;;23.37;65.30;92898.13;5113525;28;20028;-66
2022/08/21 07:50:03;;;;;;;13.05;7.30;;;;;;;23.55;65.48;92900.91;5113687;28;20030;-67
2022/08/21 07:52:28;;;;;;;12.57;9.20;;;;;;;23.61;64.31;92892.66;5113587;27;20051;-63
2022/08/21 07:54:54;;;;;;;11.45;6.53;;;;;;;24.02;62.50;92890.66;5113267;28;20472;-60
2022/08/21 07:57:19;;;;;;;13.82;10.82;;;;;;;25.11;59.37;92894.38;5113580;28;20035;-60
2022/08/21 07:59:45;;;;;;;15.20;12.50;;;;;;;26.13;56.83;92884.69;5113052;28;20024;-60
2022/08/21 08:02:11;;;;;;;11.55;9.18;;;;;;;27.17;52.30;92883.84;5113144;28;20038;-62
2022/08/21 08:04:36;;;;;;;15.38;10.43;;;;;;;28.36;49.27;92886.44;5095223;28;20067;-63
2022/08/21 08:07:02;;;;;;;14.48;9.52;;;;;;;29.33;45.93;92880.34;5092670;28;20581;-63
2022/08/21 08:09:27;;;;;;;14.10;12.60;;;;;;;29.46;44.29;92878.41;5092958;28;20027;-60
2022/08/21 08:11:53;;;;;;;10.18;5.22;;;;;;;30.18;44.08;92882.25;5092600;28;20031;-61
2022/08/21 08:14:18;;;;;;;8.63;6.05;;;;;;;29.71;43.54;92878.06;5092777;28;20031;-61
2022/08/21 08:16:44;;;;;;;7.10;4.50;;;;;;;29.18;45.27;92873.72;5092774;28;20483;-60
2022/08/21 08:19:09;;;;;;;9.55;5.05;;;;;;;28.90;44.38;92870.41;5091171;28;20086;-63
2022/08/21 08:21:37;;;;;;;7.45;5.38;;;;;;;28.80;46.49;92869.50;5092117;28;20024;-63
2022/08/21 08:24:03;;;;;;;7.65;5.25;;;;;;;28.14;47.21;92863.28;5092549;28;20024;-62
2022/08/21 08:26:28;;;;;;;7.90;5.10;;;;;;;27.70;48.73;92871.59;5092620;28;20412;-61
2022/08/21 08:28:54;;;;;;;5.43;4.47;;;;;;;27.69;47.86;92870.16;5092231;28;20095;-61
2022/08/21 08:31:19;;;;;;;8.40;4.72;;;;;;;27.38;48.08;92868.03;5092498;28;20028;-61
2022/08/21 08:33:45;;;;;;;7.22;5.55;;;;;;;27.47;48.84;92872.50;5102435;28;20123;-61
2022/08/21 08:36:15;;;;;;;9.68;4.75;;;;;;;28.05;46.33;92876.59;5112373;28;20040;-64
2022/08/21 08:38:41;;;;;;;8.77;5.40;;;;;;;27.87;47.38;92869.81;5112719;28;20038;-62
2022/08/21 08:41:18;;;;;;;8.10;5.00;;;;;;;27.65;46.85;92870.81;5112745;27;20020;-62
2022/08/21 08:44:04;;;;;;;15.15;9.40;;;;;;;27.47;47.64;92876.06;5111168;28;20035;-63
2022/08/21 08:46:42;;;;;;;6.00;4.80;;;;;;;27.05;46.93;92867.28;5111018;28;20127;-61
2022/08/21 08:49:15;;;;;;;14.15;5.40;;;;;;;26.20;50.82;92875.00;5111392;28;20023;-62
2022/08/21 08:51:40;;;;;;;6.90;4.82;;;;;;;25.95;51.69;92881.31;5111093;28;20035;-63
2022/08/21 08:54:09;;;;;;;7.43;5.05;;;;;;;26.20;51.35;92880.66;5112155;28;20027;-64
2022/08/21 08:56:35;;;;;;;12.32;6.32;;;;;;;26.28;52.87;92878.03;5110758;28;20042;-61
2022/08/21 08:59:13;;;;;;;13.68;9.88;;;;;;;25.73;53.80;92881.41;5112317;28;20106;-64
2022/08/21 09:01:39;;;;;;;9.80;5.40;;;;;;;24.94;56.39;92888.88;5110848;28;20050;-61
2022/08/21 09:04:05;;;;;;;8.27;5.55;;;;;;;24.69;58.11;92884.50;5099870;28;20028;-59
2022/08/21 09:06:54;;;;;;;7.35;5.28;;;;;;;24.52;58.09;92891.72;5091811;28;20111;-57
2022/08/21 09:09:32;;;;;;;8.75;4.95;;;;;;;24.29;57.95;92885.97;5091506;28;20066;-58
2022/08/21 09:12:06;;;;;;;10.20;5.80;;;;;;;24.09;58.25;92894.44;5091523;28;20035;-61
2022/08/21 09:14:40;;;;;;;9.80;5.95;;;;;;;23.82;59.58;92884.28;5074365;28;20020;-64
2022/08/21 09:17:18;;;;;;;12.18;7.45;;;;;;;23.68;59.29;92883.06;5091662;28;20032;-64
2022/08/21 09:20:13;;;;;;;13.48;7.20;;;;;;;23.61;59.79;92879.31;5091305;28;20488;-66
2022/08/21 09:22:39;;;;;;;9.98;5.85;;;;;;;23.72;58.87;92886.75;5090929;28;20065;-63
2022/08/21 09:25:25;;;;;;;12.80;7.28;;;;;;;23.57;59.86;92887.63;5091428;28;20119;-63
2022/08/21 09:27:50;;;;;;;10.40;7.43;;;;;;;23.45;60.51;92886.44;5091537;28;20108;-64
2022/08/21 09:30:16;;;;;;;9.50;6.07;;;;;;;23.20;59.74;92884.75;5091114;28;20477;-64
2022/08/21 09:32:42;;;;;;;16.08;7.22;;;;;;;23.24;60.43;92880.00;5092705;28;20032;-63
2022/08/21 09:35:19;;;;;;;8.30;5.70;;;;;;;23.23;61.32;92877.84;5111213;28;20593;-64
2022/08/21 09:38:23;;;;;;;12.60;6.55;;;;;;;23.25;61.02;92880.75;5111678;28;20431;-65
2022/08/21 09:40:57;;;;;;;7.65;6.53;;;;;;;23.15;61.38;92880.38;5110456;28;20062;-66
2022/08/21 09:43:25;;;;;;;10.32;6.63;;;;;;;23.19;62.73;92877.69;5111457;28;20527;-65
2022/08/21 09:46:07;;;;;;;7.60;6.53;;;;;;;23.14;62.46;92885.25;5111172;28;20504;-64
2022/08/21 09:48:50;;;;;;;10.30;7.85;;;;;;;23.26;62.67;92876.53;5111418;28;20040;-65
2022/08/21 09:51:31;;;;;;;12.00;8.45;;;;;;;23.37;61.91;92881.22;5111195;28;20488;-64
2022/08/21 09:54:03;;;;;;;9.52;5.75;;;;;;;23.39;61.02;92867.19;5089580;28;20565;-65
2022/08/21 09:59:19;;;;;;;10.13;7.70;;;;;;;23.69;61.44;92871.13;5090749;28;20031;-66
2022/08/21 10:01:49;;;;;;;10.18;6.90;;;;;;;23.86;61.00;92859.09;5090572;28;20020;-65
2022/08/21 10:04:15;;;;;;;13.85;7.00;;;;;;;24.03;60.48;92863.94;5103702;28;20032;-64
2022/08/21 10:06:41;;;;;;;11.40;6.80;;;;;;;24.15;60.22;92858.00;5109530;28;20027;-65
2022/08/21 10:09:13;;;;;;;12.73;6.50;;;;;;;24.40;59.57;92863.09;5111182;28;20110;-66
2022/08/21 10:11:39;;;;;;;7.90;6.35;;;;;;;24.95;58.98;92862.06;5110846;28;20027;-67
2022/08/21 10:14:20;;;;;;;8.45;5.68;;;;;;;25.75;55.63;92860.97;5109573;28;20543;-67
2022/08/21 10:17:02;;;;;;;8.27;5.38;;;;;;;26.35;52.06;92840.03;5109642;28;20023;-67
2022/08/21 10:19:46;;;;;;;10.80;5.15;;;;;;;26.66;50.18;92859.19;5109871;28;20031;-67
2022/08/21 10:22:24;;;;;;;6.35;5.00;;;;;;;26.95;50.91;92852.88;5103419;28;20032;-67
2022/08/21 10:24:49;;;;;;;8.68;5.40;;;;;;;26.92;49.75;92853.50;5090345;28;20035;-65
2022/08/21 10:27:39;;;;;;;8.60;4.90;;;;;;;26.99;49.87;92855.81;5090372;28;20032;-68
2022/08/21 10:30:15;;;;;;;7.40;5.10;;;;;;;27.05;51.36;92858.03;5089099;28;20113;-66
2022/08/21 10:32:53;;;;;;;8.95;5.15;;;;;;;27.24;50.01;92851.44;5090538;28;20039;-67
2022/08/21 10:35:25;;;;;;;9.47;5.83;;;;;;;27.27;49.85;92855.00;5110499;28;20040;-67
2022/08/21 10:38:39;;;;;;;9.02;6.10;;;;;;;27.07;50.86;92855.28;5110666;28;20040;-66
2022/08/21 10:41:18;;;;;;;8.07;5.10;;;;;;;26.87;51.26;92852.69;5105553;28;20043;-66
2022/08/21 10:43:53;;;;;;;8.65;5.38;;;;;;;26.91;52.15;92847.13;5109287;28;20530;-67
2022/08/21 10:46:57;;;;;;;9.50;6.10;;;;;;;27.57;50.64;92844.38;5110790;28;20023;-67
2022/08/21 10:49:53;;;;;;;9.80;5.40;;;;;;;29.09;49.37;92838.00;5081581;28;20436;-68
2022/08/21 10:52:30;;;;;;;10.20;5.35;;;;;;;30.81;44.24;92823.09;5090448;28;20039;-68
2022/08/21 10:55:03;;;;;;;9.77;4.78;;;;;;;30.76;42.77;92827.31;5090184;28;20024;-66
2022/08/21 10:57:47;;;;;;;6.78;5.05;;;;;;;30.64;41.66;92813.69;5089261;28;20542;-67
2022/08/21 11:00:17;;;;;;;10.15;4.93;;;;;;;30.13;40.99;92811.69;5089974;28;20173;-68
2022/08/21 11:02:53;;;;;;;6.43;4.80;;;;;;;29.70;41.09;92808.34;5089105;28;20078;-66
2022/08/21 11:05:22;;;;;;;6.95;5.20;;;;;;;29.22;43.72;92810.50;5109107;28;20020;-66
2022/08/21 11:07:55;;;;;;;;;;;;;;;28.74;44.38;92804.75;5111481;28;20136;-65
2022/08/21 11:11:09;;;;;;;5.68;5.05;;;;;;;28.24;45.16;92798.22;5109384;28;19969;-65
2022/08/21 11:13:41;;;;;;;9.23;5.20;;;;;;;27.87;45.97;92805.28;5112912;28;20090;-67
2022/08/21 11:16:16;;;;;;;7.93;5.10;;;;;;;27.30;46.37;92792.03;5112979;28;20034;-68
2022/08/21 11:18:58;;;;;;;7.70;5.70;;;;;;;26.98;48.64;92799.81;5113141;28;20427;-63
2022/08/21 11:21:41;;;;;;;9.50;7.25;;;;;;;26.31;50.48;92780.47;5112756;28;20032;-65
2022/08/21 11:24:17;;;;;;;12.38;7.85;;;;;;;26.12;50.09;92801.91;5093533;28;20028;-66
2022/08/21 11:26:56;;;;;;;11.02;6.22;;;;;;;25.76;51.53;92797.38;5092341;28;20043;-66
2022/08/21 11:29:32;;;;;;;8.93;5.70;;;;;;;25.60;51.73;92796.94;5093726;28;20103;-64
2022/08/21 11:32:19;;;;;;;8.13;5.38;;;;;;;25.40;52.54;92788.56;5109449;28;20114;-64
2022/08/21 11:35:06;;;;;;;7.50;5.60;;;;;;;25.18;53.53;92796.41;5111850;28;20039;-64
2022/08/21 11:37:37;;;;;;;10.10;6.75;;;;;;;25.15;52.75;92801.25;5112707;28;20054;-66
2022/08/21 11:40:03;;;;;;;13.02;5.70;;;;;;;25.08;53.27;92804.59;5113980;28;20032;-64
2022/08/21 11:43:11;;;;;;;7.07;5.47;;;;;;;25.19;53.12;92803.47;5113591;27;20542;-64
2022/08/21 11:45:43;;;;;;;8.10;6.50;;;;;;;25.12;53.41;92805.41;5084439;28;20039;-66
2022/08/21 11:48:15;;;;;;;11.20;6.80;;;;;;;25.17;55.17;92803.41;5089425;28;20465;-66
2022/08/21 11:50:42;;;;;;;6.95;5.60;;;;;;;25.36;53.78;92791.28;5093302;28;20477;-65
2022/08/21 11:53:12;;;;;;;12.07;6.22;;;;;;;25.49;54.32;92784.63;5092140;28;20412;-64
2022/08/21 11:55:49;;;;;;;8.98;5.53;;;;;;;25.72;53.42;92772.53;5093335;28;20436;-64
2022/08/21 11:58:19;;;;;;;13.45;5.85;;;;;;;26.06;53.11;92784.75;5092985;28;20081;-65
2022/08/21 12:00:56;;;;;;;6.57;4.85;;;;;;;26.54;49.71;92779.63;5092802;28;20024;-65
2022/08/21 12:03:29;;;;;;;7.68;5.05;;;;;;;26.94;49.51;92777.75;5097783;28;20408;-65
2022/08/21 12:06:00;;;;;;;7.28;5.72;;;;;;;27.48;50.16;92777.56;5111908;28;20427;-66